Terminal Aerodrome Forecast
Issued by NWS Medford, OR

Home | Current Version | Previous Version | Text Only | Print | Product List | Glossary On
Versions: 1 2 3 4 5 6 7 8 9 10 11 12 13 14
000
FTUS46 KMFR 281740
TAFMFR
TAF
KMFR 281740Z 2818/2918 VRB03KT 4SM FU BKN150
     FM282100 30010G15KT 4SM FU BKN150
     FM290400 VRB04KT P6SM BKN080 BKN200
     FM291100 14006KT P6SM -SHRA BKN060 BKN100
     FM291400 20015G25KT P6SM -SHRA BKN040 OVC060=

USA.gov is the U.S. government's official web portal to all federal, state and local government web resources and services.